Spragge, Canada
Current Conditions -  °F | °C
As of 7:22 AM on Friday 21 Nov 2014 (Local Time) from CYZE Reporting Station
Broken Clouds Broken Clouds  
Wind Chill:   Ceiling: 4600
Heat Index: 19°   Visibility: 9mi
Dew Point: 10°   Wind: 14mph
Humidity: 68%   Direction: 280°W
Pressure: 30.22"   Gusts: 20mph
Location:  46.21°N, 82.66°W
Report Text: CYZE 211222Z AUTO 28012G17KT 9SM BKN046 M07/M12 A3022 RMK ICG SLP247
Loading
Personal Weather Stations






























Interactive Weather Map New forecast layout! Learn more

10-Day Weather Forecast

Advertisements
Track Severe Weather on mobile